createdAt,value
2019-03-23T00:00:22.414Z,7.50
2019-03-23T00:01:22.408Z,7.30
2019-03-23T00:02:22.403Z,7.32
2019-03-23T00:03:22.385Z,7.36
2019-03-23T00:04:22.387Z,7.44
2019-03-23T00:05:22.360Z,7.44
2019-03-23T00:06:30.404Z,7.34
2019-03-23T00:07:23.337Z,7.50
2019-03-23T00:08:22.361Z,7.42
2019-03-23T00:09:22.317Z,7.42
2019-03-23T00:10:22.311Z,7.47
2019-03-23T00:11:22.301Z,7.36
2019-03-23T00:12:22.286Z,7.44
2019-03-23T00:13:22.279Z,7.34
2019-03-23T00:14:22.271Z,7.33
2019-03-23T00:15:22.252Z,7.32
2019-03-23T00:16:22.247Z,7.33
2019-03-23T00:17:22.235Z,7.29
2019-03-23T00:18:22.226Z,7.30
2019-03-23T00:19:22.275Z,7.23
2019-03-23T00:20:22.204Z,7.19
2019-03-23T00:21:22.192Z,7.24
2019-03-23T00:22:22.177Z,7.14
2019-03-23T00:23:22.175Z,7.18
2019-03-23T00:24:22.162Z,7.18
2019-03-23T00:25:22.163Z,7.15
2019-03-23T00:26:22.139Z,7.15
2019-03-23T00:27:22.124Z,7.16
2019-03-23T00:28:22.120Z,7.19
2019-03-23T00:29:22.111Z,7.15
2019-03-23T00:30:22.107Z,7.15
2019-03-23T00:31:22.086Z,7.24
2019-03-23T00:32:22.076Z,7.21
2019-03-23T00:33:22.072Z,7.18
2019-03-23T00:34:22.102Z,7.12
2019-03-23T00:35:22.041Z,7.12
2019-03-23T00:36:22.029Z,7.08
2019-03-23T00:37:22.024Z,7.08
2019-03-23T00:38:22.013Z,7.15
2019-03-23T00:39:22.002Z,7.12
2019-03-23T00:40:21.993Z,7.09
2019-03-23T00:41:21.982Z,7.09
2019-03-23T00:42:22.015Z,7.09
2019-03-23T00:43:21.993Z,7.08
2019-03-23T00:44:21.947Z,7.05
2019-03-23T00:45:21.939Z,7.04
2019-03-23T00:46:21.926Z,6.94
2019-03-23T00:47:21.912Z,6.99
2019-03-23T00:48:21.899Z,6.96
2019-03-23T00:49:21.902Z,6.94
2019-03-23T00:50:21.892Z,6.96
2019-03-23T00:51:21.869Z,6.94
2019-03-23T00:52:21.889Z,6.96
2019-03-23T00:53:21.850Z,6.93
2019-03-23T00:54:21.840Z,6.99
2019-03-23T00:55:21.824Z,6.90
2019-03-23T00:56:21.814Z,6.94
2019-03-23T00:57:21.810Z,6.87
2019-03-23T00:58:21.802Z,6.83
2019-03-23T00:59:21.783Z,6.91
2019-03-23T01:00:36.377Z,6.82
2019-03-23T01:01:21.776Z,6.91
2019-03-23T01:02:21.757Z,6.89
2019-03-23T01:03:21.750Z,6.93
2019-03-23T01:04:21.730Z,6.87
2019-03-23T01:05:21.719Z,6.76
2019-03-23T01:06:21.722Z,6.86
2019-03-23T01:07:21.697Z,6.78
2019-03-23T01:08:21.692Z,6.89
2019-03-23T01:09:21.685Z,6.93
2019-03-23T01:10:21.663Z,6.81
2019-03-23T01:11:21.659Z,6.89
2019-03-23T01:12:21.678Z,6.83
2019-03-23T01:13:21.637Z,6.90
2019-03-23T01:14:21.622Z,6.96
2019-03-23T01:15:21.620Z,6.83
2019-03-23T01:16:21.601Z,6.86
2019-03-23T01:17:21.589Z,6.86
2019-03-23T01:18:21.589Z,6.94
2019-03-23T01:19:21.577Z,6.93
2019-03-23T01:20:21.570Z,6.90
2019-03-23T01:21:21.548Z,6.89
2019-03-23T01:22:21.537Z,6.89
2019-03-23T01:23:21.531Z,6.94
2019-03-23T01:24:21.546Z,6.86
2019-03-23T01:25:21.511Z,6.86
2019-03-23T01:26:21.493Z,6.91
2019-03-23T01:27:21.492Z,6.86
2019-03-23T01:28:21.488Z,6.78
2019-03-23T01:29:21.466Z,6.87
2019-03-23T01:30:21.461Z,6.91
2019-03-23T01:31:21.442Z,6.86
2019-03-23T01:32:21.429Z,6.89
2019-03-23T01:33:21.421Z,6.79
2019-03-23T01:34:21.409Z,6.78
2019-03-23T01:35:21.434Z,6.76
2019-03-23T01:36:21.388Z,6.75
2019-03-23T01:37:21.381Z,6.73
2019-03-23T01:38:21.367Z,6.78
2019-03-23T01:39:21.360Z,6.79
2019-03-23T01:40:21.346Z,6.89
2019-03-23T01:41:21.370Z,6.79
2019-03-23T01:42:21.325Z,6.76
2019-03-23T01:43:21.314Z,6.82
2019-03-23T01:44:21.303Z,6.76
2019-03-23T01:45:21.299Z,6.87
2019-03-23T01:46:21.295Z,6.86
2019-03-23T01:47:21.288Z,6.93
2019-03-23T01:48:21.267Z,6.82
2019-03-23T01:49:21.257Z,6.90
2019-03-23T01:50:21.240Z,6.90
2019-03-23T01:51:21.248Z,6.87
2019-03-23T01:52:21.229Z,6.71
2019-03-23T01:53:21.213Z,6.90
2019-03-23T01:54:21.197Z,6.83
2019-03-23T01:55:21.185Z,6.86
2019-03-23T01:56:21.175Z,6.90
2019-03-23T01:57:21.181Z,6.89
2019-03-23T01:58:21.157Z,6.82
2019-03-23T01:59:21.147Z,6.90
2019-03-23T02:00:21.134Z,6.78
2019-03-23T02:01:21.136Z,6.81
2019-03-23T02:02:21.123Z,6.81
2019-03-23T02:03:21.112Z,6.89
2019-03-23T02:04:21.100Z,6.93
2019-03-23T02:05:21.085Z,6.72
2019-03-23T02:06:21.075Z,6.73
2019-03-23T02:07:21.058Z,6.83
2019-03-23T02:08:21.059Z,6.82
2019-03-23T02:09:21.044Z,6.87
2019-03-23T02:10:21.028Z,6.86
2019-03-23T02:11:21.018Z,6.79
2019-03-23T02:12:21.043Z,6.83
2019-03-23T02:13:20.994Z,6.73
2019-03-23T02:14:20.993Z,6.82
2019-03-23T02:15:20.980Z,6.75
2019-03-23T02:16:20.968Z,6.78
2019-03-23T02:17:20.967Z,6.69
2019-03-23T02:18:20.955Z,6.81
2019-03-23T02:19:20.935Z,6.75
2019-03-23T02:20:20.922Z,6.83
2019-03-23T02:21:20.910Z,6.91
2019-03-23T02:22:20.913Z,6.71
2019-03-23T02:23:20.899Z,6.75
2019-03-23T02:24:20.889Z,6.75
2019-03-23T02:25:20.873Z,6.76
2019-03-23T02:26:20.858Z,6.73
2019-03-23T02:27:20.849Z,6.73
2019-03-23T02:28:20.851Z,6.96
2019-03-23T02:29:20.836Z,6.71
2019-03-23T02:30:20.826Z,6.90
2019-03-23T02:31:20.810Z,6.76
2019-03-23T02:32:20.806Z,6.76
2019-03-23T02:33:20.918Z,6.81
2019-03-23T02:34:20.774Z,6.76
2019-03-23T02:35:20.784Z,6.72
2019-03-23T02:36:20.761Z,6.87
2019-03-23T02:37:27.695Z,6.81
2019-03-23T02:38:21.731Z,6.79
2019-03-23T02:39:20.729Z,6.86
2019-03-23T02:40:20.724Z,6.86
2019-03-23T02:41:20.702Z,6.81
2019-03-23T02:42:20.699Z,6.93
2019-03-23T02:43:20.703Z,6.87
2019-03-23T02:44:20.673Z,6.91
2019-03-23T02:45:20.673Z,6.87
2019-03-23T02:46:20.657Z,6.89
2019-03-23T02:47:20.641Z,6.87
2019-03-23T02:48:20.631Z,6.91
2019-03-23T02:49:20.618Z,6.86
2019-03-23T02:50:20.613Z,6.86
2019-03-23T02:51:20.605Z,6.86
2019-03-23T02:52:20.583Z,6.94
2019-03-23T02:53:20.581Z,6.93
2019-03-23T02:54:20.564Z,6.93
2019-03-23T02:55:20.552Z,6.91
2019-03-23T02:56:20.560Z,6.81
2019-03-23T02:57:20.535Z,6.76
2019-03-23T02:58:20.520Z,6.78
2019-03-23T02:59:20.508Z,6.78
2019-03-23T03:00:20.504Z,6.75
2019-03-23T03:01:20.486Z,6.82
2019-03-23T03:02:20.518Z,6.97
2019-03-23T03:03:20.466Z,6.75
2019-03-23T03:04:20.460Z,6.90
2019-03-23T03:05:20.446Z,6.76
2019-03-23T03:06:20.449Z,6.79
2019-03-23T03:07:20.431Z,6.75
2019-03-23T03:08:20.429Z,6.76
2019-03-23T03:09:20.408Z,6.69
2019-03-23T03:10:20.401Z,6.78
2019-03-23T03:11:20.392Z,6.81
2019-03-23T03:12:20.376Z,6.75
2019-03-23T03:13:20.368Z,6.78
2019-03-23T03:14:20.353Z,6.75
2019-03-23T03:15:20.351Z,6.78
2019-03-23T03:16:20.332Z,6.82
2019-03-23T03:17:20.337Z,6.78
2019-03-23T03:18:20.312Z,6.73
2019-03-23T03:19:20.336Z,6.75
2019-03-23T03:20:20.283Z,6.76
2019-03-23T03:21:20.283Z,6.78
2019-03-23T03:22:20.273Z,6.75
2019-03-23T03:23:20.307Z,6.76
2019-03-23T03:24:20.247Z,6.73
2019-03-23T03:25:20.241Z,6.61
2019-03-23T03:26:20.223Z,6.55
2019-03-23T03:27:20.225Z,6.55
2019-03-23T03:28:20.207Z,6.60
2019-03-23T03:29:20.189Z,6.57
2019-03-23T03:30:20.189Z,6.58
2019-03-23T03:31:20.174Z,6.54
2019-03-23T03:32:20.176Z,6.43
2019-03-23T03:33:20.172Z,6.42
2019-03-23T03:34:20.143Z,6.42
2019-03-23T03:35:20.131Z,6.45
2019-03-23T03:36:20.134Z,6.38
2019-03-23T03:37:20.137Z,6.27
2019-03-23T03:38:20.094Z,6.32
2019-03-23T03:39:20.084Z,6.25
2019-03-23T03:40:20.079Z,6.32
2019-03-23T03:41:20.066Z,6.27
2019-03-23T03:42:20.059Z,6.20
2019-03-23T03:43:20.056Z,6.36
2019-03-23T03:44:20.030Z,6.38
2019-03-23T03:45:20.020Z,6.46
2019-03-23T03:46:20.010Z,6.43
2019-03-23T03:47:20.001Z,6.39
2019-03-23T03:48:20.022Z,6.43
2019-03-23T03:49:19.983Z,6.42
2019-03-23T03:50:19.972Z,6.51
2019-03-23T03:51:19.968Z,6.50
2019-03-23T03:52:19.951Z,6.51
2019-03-23T03:53:19.934Z,6.60
2019-03-23T03:54:19.934Z,6.60
2019-03-23T03:55:19.921Z,6.57
2019-03-23T03:56:19.910Z,6.73
2019-03-23T03:57:19.897Z,6.75
2019-03-23T03:58:19.883Z,6.73
2019-03-23T03:59:19.886Z,6.76
2019-03-23T04:00:19.874Z,6.71
2019-03-23T04:01:19.856Z,6.75
2019-03-23T04:02:19.844Z,6.75
2019-03-23T04:03:19.830Z,6.78
2019-03-23T04:04:19.853Z,6.78
2019-03-23T04:05:19.813Z,6.75
2019-03-23T04:06:19.809Z,6.64
2019-03-23T04:07:19.787Z,6.68
2019-03-23T04:08:19.779Z,6.69
2019-03-23T04:09:19.777Z,6.72
2019-03-23T04:10:19.793Z,6.69
2019-03-23T04:11:19.749Z,6.69
2019-03-23T04:12:19.732Z,6.71
2019-03-23T04:13:19.726Z,6.73
2019-03-23T04:14:19.712Z,6.63
2019-03-23T04:15:19.713Z,6.69
2019-03-23T04:16:19.698Z,6.53
2019-03-23T04:17:19.697Z,6.54
2019-03-23T04:18:19.681Z,6.51
2019-03-23T04:19:19.671Z,6.55
2019-03-23T04:20:19.661Z,6.53
2019-03-23T04:21:19.650Z,6.51
2019-03-23T04:22:19.626Z,6.57
2019-03-23T04:23:19.622Z,6.53
2019-03-23T04:24:19.608Z,6.48
2019-03-23T04:25:19.594Z,6.50
2019-03-23T04:26:19.599Z,6.50
2019-03-23T04:27:19.584Z,6.50
2019-03-23T04:28:19.575Z,6.45
2019-03-23T04:29:19.559Z,6.45
2019-03-23T04:30:19.553Z,6.36
2019-03-23T04:31:19.535Z,6.36
2019-03-23T04:32:19.562Z,6.48
2019-03-23T04:33:19.514Z,6.43
2019-03-23T04:34:19.501Z,6.48
2019-03-23T04:35:19.499Z,6.39
2019-03-23T04:36:19.480Z,6.40
2019-03-23T04:37:19.471Z,6.43
2019-03-23T04:38:22.958Z,6.53
2019-03-23T04:39:19.452Z,6.48
2019-03-23T04:40:19.442Z,6.50
2019-03-23T04:41:19.431Z,6.50
2019-03-23T04:42:19.422Z,6.45
2019-03-23T04:43:19.403Z,6.45
2019-03-23T04:44:19.392Z,6.36
2019-03-23T04:45:19.382Z,6.48
2019-03-23T04:46:19.378Z,6.39
2019-03-23T04:47:19.384Z,6.38
2019-03-23T04:48:19.356Z,6.36
2019-03-23T04:49:19.347Z,6.46
2019-03-23T04:50:19.339Z,6.45
2019-03-23T04:51:19.323Z,6.46
2019-03-23T04:52:19.324Z,6.38
2019-03-23T04:53:19.303Z,6.39
2019-03-23T04:54:19.289Z,6.38
2019-03-23T04:55:19.286Z,6.36
2019-03-23T04:56:19.271Z,6.39
2019-03-23T04:57:19.262Z,6.38
2019-03-23T04:58:19.257Z,6.32
2019-03-23T04:59:19.251Z,6.38
2019-03-23T05:00:19.232Z,6.42
2019-03-23T05:01:19.222Z,6.38
2019-03-23T05:02:19.208Z,6.24
2019-03-23T05:03:19.200Z,6.24
2019-03-23T05:04:19.181Z,6.08
2019-03-23T05:05:19.180Z,6.14
2019-03-23T05:06:19.161Z,6.06
2019-03-23T05:07:19.150Z,6.16
2019-03-23T05:08:19.148Z,6.11
2019-03-23T05:09:19.135Z,6.11
2019-03-23T05:10:19.123Z,6.11
2019-03-23T05:11:19.108Z,6.06
2019-03-23T05:12:19.103Z,6.11
2019-03-23T05:13:19.127Z,6.10
2019-03-23T05:14:19.082Z,6.13
2019-03-23T05:15:19.069Z,6.11
2019-03-23T05:16:19.061Z,6.13
2019-03-23T05:17:19.045Z,6.13
2019-03-23T05:18:19.042Z,5.99
2019-03-23T05:19:19.063Z,5.95
2019-03-23T05:20:19.013Z,6.03
2019-03-23T05:21:19.008Z,6.03
2019-03-23T05:22:18.992Z,6.02
2019-03-23T05:23:18.994Z,6.03
2019-03-23T05:24:18.974Z,6.05
2019-03-23T05:25:18.975Z,6.01
2019-03-23T05:26:18.956Z,5.98
2019-03-23T05:27:18.946Z,5.96
2019-03-23T05:28:18.931Z,5.95
2019-03-23T05:29:18.934Z,5.93
2019-03-23T05:30:18.919Z,5.95
2019-03-23T05:31:18.906Z,5.95
2019-03-23T05:32:18.889Z,5.95
2019-03-23T05:33:18.878Z,5.95
2019-03-23T05:34:18.877Z,5.96
2019-03-23T05:35:18.866Z,5.95
2019-03-23T05:36:18.856Z,6.03
2019-03-23T05:37:18.835Z,5.96
2019-03-23T05:38:18.828Z,6.03
2019-03-23T05:39:18.836Z,6.03
2019-03-23T05:40:18.802Z,5.99
2019-03-23T05:41:18.792Z,5.93
2019-03-23T05:42:18.798Z,5.95
2019-03-23T05:43:18.786Z,5.93
2019-03-23T05:44:18.764Z,5.90
2019-03-23T05:45:18.752Z,5.90
2019-03-23T05:46:18.760Z,5.98
2019-03-23T05:47:18.729Z,6.01
2019-03-23T05:48:18.719Z,5.88
2019-03-23T05:49:18.729Z,5.93
2019-03-23T05:50:18.702Z,6.02
2019-03-23T05:51:18.708Z,6.11
2019-03-23T05:52:18.682Z,6.14
2019-03-23T05:53:18.667Z,6.24
2019-03-23T05:54:18.656Z,6.20
2019-03-23T05:55:18.646Z,6.27
2019-03-23T05:56:18.647Z,6.20
2019-03-23T05:57:19.871Z,6.21
2019-03-23T05:58:18.621Z,6.24
2019-03-23T05:59:18.608Z,6.24
2019-03-23T06:00:18.600Z,6.25
2019-03-23T06:01:18.613Z,6.27
2019-03-23T06:02:18.571Z,6.28
2019-03-23T06:03:18.564Z,6.33
2019-03-23T06:04:18.560Z,6.32
2019-03-23T06:05:18.540Z,6.38
2019-03-23T06:06:18.529Z,6.40
2019-03-23T06:07:18.525Z,6.33
2019-03-23T06:08:18.511Z,6.42
2019-03-23T06:09:18.504Z,6.36
2019-03-23T06:10:18.492Z,6.43
2019-03-23T06:11:18.482Z,6.42
2019-03-23T06:12:18.489Z,6.46
2019-03-23T06:13:18.466Z,6.45
2019-03-23T06:14:18.453Z,6.38
2019-03-23T06:15:18.440Z,6.53
2019-03-23T06:16:18.437Z,6.53
2019-03-23T06:17:18.418Z,6.51
2019-03-23T06:18:18.418Z,6.55
2019-03-23T06:19:18.399Z,6.61
2019-03-23T06:20:18.387Z,6.55
2019-03-23T06:21:18.372Z,6.71
2019-03-23T06:22:18.359Z,6.76
2019-03-23T06:23:18.393Z,6.69
2019-03-23T06:24:18.350Z,6.81
2019-03-23T06:25:18.335Z,6.78
2019-03-23T06:26:18.325Z,6.73
2019-03-23T06:27:18.310Z,6.79
2019-03-23T06:28:18.295Z,6.76
2019-03-23T06:29:18.332Z,6.76
2019-03-23T06:30:18.279Z,6.72
2019-03-23T06:31:18.263Z,6.76
2019-03-23T06:32:20.607Z,6.75
2019-03-23T06:33:18.241Z,6.71
2019-03-23T06:34:18.236Z,6.79
2019-03-23T06:35:18.240Z,6.76
2019-03-23T06:36:18.222Z,6.69
2019-03-23T06:37:18.200Z,6.76
2019-03-23T06:38:18.199Z,6.76
2019-03-23T06:39:18.187Z,6.83
2019-03-23T06:40:18.175Z,6.78
2019-03-23T06:41:18.161Z,6.94
2019-03-23T06:42:18.148Z,6.90
2019-03-23T06:43:18.150Z,7.05
2019-03-23T06:44:18.463Z,7.12
2019-03-23T06:45:18.126Z,7.23
2019-03-23T06:46:18.103Z,7.32
2019-03-23T06:47:18.101Z,7.36
2019-03-23T06:48:18.085Z,7.54
2019-03-23T06:49:18.083Z,7.62
2019-03-23T06:50:18.068Z,7.66
2019-03-23T06:51:18.049Z,7.77
2019-03-23T06:52:18.046Z,7.88
2019-03-23T06:53:18.030Z,7.92
2019-03-23T06:54:18.037Z,8.10
2019-03-23T06:55:18.011Z,8.12
2019-03-23T06:56:18.005Z,8.24
2019-03-23T06:57:17.999Z,8.24
2019-03-23T06:58:17.982Z,8.43
2019-03-23T06:59:17.965Z,8.52
2019-03-23T07:00:17.993Z,8.55
2019-03-23T07:02:34.001Z,8.89
2019-03-23T07:03:33.988Z,8.97
2019-03-23T07:04:33.981Z,8.94
2019-03-23T07:05:33.977Z,9.08
2019-03-23T07:06:33.954Z,9.13
2019-03-23T07:07:33.955Z,9.20
2019-03-23T07:08:33.937Z,9.34
2019-03-23T07:09:33.921Z,9.50
2019-03-23T07:10:33.907Z,9.59
2019-03-23T07:11:33.915Z,9.83
2019-03-23T07:12:33.889Z,9.99
2019-03-23T07:13:33.882Z,10.06
2019-03-23T07:14:33.863Z,10.32
2019-03-23T07:15:33.856Z,10.47
2019-03-23T07:16:33.855Z,10.60
2019-03-23T07:17:33.836Z,10.75
2019-03-23T07:18:33.827Z,10.99
2019-03-23T07:19:33.836Z,11.06
2019-03-23T07:20:41.730Z,11.21
2019-03-23T07:21:40.843Z,11.30
2019-03-23T07:22:41.783Z,11.39
2019-03-23T07:23:42.809Z,11.56
2019-03-23T07:24:33.760Z,11.67
2019-03-23T07:25:41.325Z,11.85
2019-03-23T07:26:33.731Z,11.96
2019-03-23T07:27:33.739Z,12.11
2019-03-23T07:28:33.716Z,12.25
2019-03-23T07:29:33.706Z,12.26
2019-03-23T07:30:33.690Z,12.38
2019-03-23T07:31:33.691Z,12.48
2019-03-23T07:32:33.680Z,12.55
2019-03-23T07:33:40.717Z,12.63
2019-03-23T07:34:33.651Z,12.84
2019-03-23T07:35:33.642Z,12.85
2019-03-23T07:36:33.631Z,13.01
2019-03-23T07:37:33.614Z,13.16
2019-03-23T07:38:33.614Z,13.24
2019-03-23T07:39:33.589Z,13.32
2019-03-23T07:40:33.588Z,13.48
2019-03-23T07:41:33.575Z,13.68
2019-03-23T07:42:33.571Z,13.79
2019-03-23T07:43:33.560Z,13.93
2019-03-23T07:44:33.537Z,14.13
2019-03-23T07:45:33.526Z,14.42
2019-03-23T07:46:33.518Z,14.48
2019-03-23T07:47:33.502Z,14.69
2019-03-23T07:48:33.499Z,14.94
2019-03-23T07:49:33.497Z,15.07
2019-03-23T07:50:33.476Z,15.13
2019-03-23T07:51:33.464Z,15.31
2019-03-23T07:52:33.446Z,15.30
2019-03-23T07:53:33.456Z,15.49
2019-03-23T07:54:33.434Z,15.64
2019-03-23T07:55:33.422Z,16.01
2019-03-23T07:56:33.413Z,16.18
2019-03-23T07:57:33.399Z,16.25
2019-03-23T07:58:33.511Z,16.41
2019-03-23T07:59:33.410Z,16.48
2019-03-23T08:00:33.372Z,16.54
2019-03-23T08:01:33.352Z,16.55
2019-03-23T08:02:33.342Z,16.69
2019-03-23T08:03:33.351Z,16.81
2019-03-23T08:04:33.328Z,16.80
2019-03-23T08:05:33.314Z,16.88
2019-03-23T08:06:33.303Z,17.10
2019-03-23T08:07:33.284Z,17.17
2019-03-23T08:08:33.274Z,17.25
2019-03-23T08:09:37.691Z,17.46
2019-03-23T08:10:33.255Z,17.46
2019-03-23T08:11:33.247Z,17.68
2019-03-23T08:12:33.228Z,17.76
2019-03-23T08:13:33.285Z,17.80
2019-03-23T08:14:33.206Z,17.96
2019-03-23T08:15:33.210Z,18.16
2019-03-23T08:16:33.195Z,18.29
2019-03-23T08:17:33.174Z,18.35
2019-03-23T08:18:33.168Z,18.54
2019-03-23T08:19:33.196Z,18.69
2019-03-23T08:20:33.147Z,18.82
2019-03-23T08:21:33.129Z,18.93
2019-03-23T08:22:33.124Z,18.94
2019-03-23T08:23:33.112Z,18.96
2019-03-23T08:24:33.096Z,19.09
2019-03-23T08:25:33.100Z,19.20
2019-03-23T08:26:33.078Z,19.35
2019-03-23T08:27:33.070Z,19.47
2019-03-23T08:28:33.058Z,19.79
2019-03-23T08:29:33.043Z,19.79
2019-03-23T08:30:33.045Z,19.75
2019-03-23T08:31:33.025Z,19.78
2019-03-23T08:32:33.012Z,20.01
2019-03-23T08:33:33.005Z,20.17
2019-03-23T08:34:32.997Z,20.15
2019-03-23T08:35:33.028Z,20.40
2019-03-23T08:36:32.966Z,20.60
2019-03-23T08:37:32.959Z,20.88
2019-03-23T08:38:32.952Z,21.09
2019-03-23T08:39:32.942Z,21.21
2019-03-23T08:40:32.923Z,21.36
2019-03-23T08:41:32.950Z,21.18
2019-03-23T08:42:34.965Z,21.15
2019-03-23T08:43:32.890Z,21.05
2019-03-23T08:44:32.885Z,21.34
2019-03-23T08:45:32.920Z,21.45
2019-03-23T08:46:32.899Z,21.70
2019-03-23T08:47:32.859Z,21.71
2019-03-23T08:48:32.841Z,21.73
2019-03-23T08:49:32.906Z,21.94
2019-03-23T08:50:32.822Z,21.89
2019-03-23T08:51:32.848Z,21.90
2019-03-23T08:52:32.833Z,21.63
2019-03-23T08:53:32.788Z,21.86
2019-03-23T08:54:32.804Z,21.73
2019-03-23T08:55:32.763Z,21.74
2019-03-23T08:56:32.756Z,21.93
2019-03-23T08:57:32.761Z,22.02
2019-03-23T08:58:32.736Z,22.27
2019-03-23T08:59:32.726Z,22.35
2019-03-23T09:00:32.714Z,22.49
2019-03-23T09:01:32.698Z,22.75
2019-03-23T09:02:32.704Z,22.84
2019-03-23T09:03:32.683Z,22.94
2019-03-23T09:04:32.674Z,22.74
2019-03-23T09:05:32.662Z,22.72
2019-03-23T09:06:32.651Z,22.79
2019-03-23T09:07:32.648Z,22.97
2019-03-23T09:08:32.628Z,22.97
2019-03-23T09:09:32.619Z,23.12
2019-03-23T09:10:32.617Z,23.22
2019-03-23T09:11:32.604Z,23.12
2019-03-23T09:12:32.585Z,23.09
2019-03-23T09:13:40.241Z,23.19
2019-03-23T09:14:33.583Z,23.37
2019-03-23T09:15:32.553Z,23.47
2019-03-23T09:16:32.546Z,23.38
2019-03-23T09:17:32.540Z,23.54
2019-03-23T09:18:32.559Z,23.50
2019-03-23T09:19:32.507Z,23.54
2019-03-23T09:20:32.502Z,23.64
2019-03-23T09:21:32.507Z,23.77
2019-03-23T09:22:32.482Z,23.77
2019-03-23T09:23:32.464Z,23.64
2019-03-23T09:24:32.471Z,23.69
2019-03-23T09:25:32.461Z,23.69
2019-03-23T09:26:32.442Z,23.67
2019-03-23T09:27:32.428Z,23.72
2019-03-23T09:28:32.424Z,23.89
2019-03-23T09:29:32.405Z,24.12
2019-03-23T09:30:32.396Z,24.24
2019-03-23T09:31:32.393Z,24.12
2019-03-23T09:32:32.374Z,24.04
2019-03-23T09:33:32.385Z,24.08
2019-03-23T09:34:32.400Z,23.99
2019-03-23T09:35:32.347Z,24.02
2019-03-23T09:36:32.337Z,24.11
2019-03-23T09:37:32.321Z,24.18
2019-03-23T09:38:32.313Z,24.08
2019-03-23T09:39:32.326Z,23.92
2019-03-23T09:40:32.312Z,24.04
2019-03-23T09:41:32.283Z,24.16
2019-03-23T09:42:32.272Z,24.29
2019-03-23T09:43:32.265Z,24.44
2019-03-23T09:44:32.261Z,24.36
2019-03-23T09:45:32.251Z,24.45
2019-03-23T09:46:32.233Z,24.49
2019-03-23T09:47:32.216Z,24.67
2019-03-23T09:48:32.203Z,24.83
2019-03-23T09:49:32.206Z,25.05
2019-03-23T09:50:32.187Z,25.29
2019-03-23T09:51:32.194Z,25.41
2019-03-23T09:52:32.174Z,25.05
2019-03-23T09:53:32.151Z,25.16
2019-03-23T09:54:32.145Z,25.23
2019-03-23T09:55:32.149Z,25.34
2019-03-23T09:56:32.160Z,25.36
2019-03-23T09:57:32.118Z,25.42
2019-03-23T09:58:32.108Z,25.66
2019-03-23T09:59:32.089Z,25.75
2019-03-23T10:00:32.087Z,25.72
2019-03-23T10:01:32.075Z,25.81
2019-03-23T10:02:32.066Z,25.76
2019-03-23T10:03:32.065Z,25.66
2019-03-23T10:04:32.087Z,25.20
2019-03-23T10:05:32.034Z,24.44
2019-03-23T10:06:32.023Z,24.36
2019-03-23T10:07:32.023Z,24.30
2019-03-23T10:08:32.008Z,24.16
2019-03-23T10:09:31.990Z,24.14
2019-03-23T10:10:31.979Z,24.05
2019-03-23T10:11:32.000Z,23.94
2019-03-23T10:12:31.958Z,23.87
2019-03-23T10:13:31.949Z,24.00
2019-03-23T10:14:31.938Z,24.15
2019-03-23T10:15:31.924Z,24.37
2019-03-23T10:16:31.912Z,24.55
2019-03-23T10:17:31.916Z,24.51
2019-03-23T10:18:31.909Z,24.63
2019-03-23T10:19:31.889Z,24.55
2019-03-23T10:20:31.876Z,24.59
2019-03-23T10:21:31.892Z,24.66
2019-03-23T10:22:31.877Z,24.37
2019-03-23T10:23:31.859Z,24.34
2019-03-23T10:24:31.830Z,24.31
2019-03-23T10:25:31.828Z,24.44
2019-03-23T10:26:31.815Z,24.56
2019-03-23T10:27:31.840Z,24.77
2019-03-23T10:28:31.791Z,25.07
2019-03-23T10:29:31.777Z,25.34
2019-03-23T10:30:31.764Z,25.67
2019-03-23T10:31:31.754Z,25.71
2019-03-23T10:32:31.745Z,25.86
2019-03-23T10:33:31.780Z,25.98
2019-03-23T10:34:31.727Z,25.85
2019-03-23T10:35:31.769Z,26.03
2019-03-23T10:36:31.706Z,26.35
2019-03-23T10:37:31.697Z,26.49
2019-03-23T10:38:31.686Z,26.50
2019-03-23T10:39:31.689Z,26.19
2019-03-23T10:40:32.781Z,26.53
2019-03-23T10:41:31.655Z,26.66
2019-03-23T10:42:31.639Z,26.84
2019-03-23T10:43:31.633Z,26.90
2019-03-23T10:44:31.632Z,27.12
2019-03-23T10:45:31.613Z,27.21
2019-03-23T10:46:31.600Z,27.46
2019-03-23T10:47:31.677Z,27.78
2019-03-23T10:48:31.583Z,28.03
2019-03-23T10:49:31.601Z,28.25
2019-03-23T10:50:31.569Z,28.28
2019-03-23T10:51:31.547Z,28.21
2019-03-23T10:52:32.554Z,28.54
2019-03-23T10:53:31.547Z,28.72
2019-03-23T10:54:31.520Z,28.92
2019-03-23T10:55:31.524Z,28.57
2019-03-23T10:56:31.505Z,28.58
2019-03-23T10:57:31.485Z,28.08
2019-03-23T10:58:31.479Z,28.14
2019-03-23T10:59:31.465Z,28.08
2019-03-23T11:00:31.475Z,28.24
2019-03-23T11:01:31.456Z,28.42
2019-03-23T11:02:31.445Z,28.21
2019-03-23T11:03:31.439Z,28.09
2019-03-23T11:04:31.418Z,28.03
2019-03-23T11:05:31.409Z,27.90
2019-03-23T11:06:31.407Z,27.95
2019-03-23T11:07:31.396Z,28.06
2019-03-23T11:08:31.375Z,27.93
2019-03-23T11:09:31.378Z,28.06
2019-03-23T11:10:31.353Z,27.95
2019-03-23T11:11:31.349Z,27.76
2019-03-23T11:12:31.346Z,27.71
2019-03-23T11:13:31.336Z,27.55
2019-03-23T11:14:31.317Z,27.31
2019-03-23T11:15:31.311Z,27.53
2019-03-23T11:16:38.875Z,27.25
2019-03-23T11:17:31.281Z,27.15
2019-03-23T11:18:31.276Z,27.31
2019-03-23T11:19:31.265Z,27.48
2019-03-23T11:20:31.259Z,27.40
2019-03-23T11:21:31.257Z,27.58
2019-03-23T11:22:31.252Z,27.62
2019-03-23T11:23:31.224Z,27.88
2019-03-23T11:24:31.210Z,27.99
2019-03-23T11:25:31.202Z,28.28
2019-03-23T11:26:31.198Z,28.28
2019-03-23T11:27:31.202Z,28.27
2019-03-23T11:28:31.178Z,28.15
2019-03-23T11:29:31.157Z,28.30
2019-03-23T11:30:31.148Z,27.98
2019-03-23T11:31:31.168Z,27.77
2019-03-23T11:32:31.141Z,27.78
2019-03-23T11:33:31.122Z,27.81
2019-03-23T11:34:31.106Z,27.95
2019-03-23T11:35:31.096Z,28.05
2019-03-23T11:36:31.118Z,27.88
2019-03-23T11:37:31.332Z,28.11
2019-03-23T11:38:31.076Z,28.20
2019-03-23T11:39:31.063Z,28.03
2019-03-23T11:40:31.053Z,27.96
2019-03-23T11:41:31.034Z,27.88
2019-03-23T11:42:31.030Z,28.03
2019-03-23T11:43:38.116Z,28.11
2019-03-23T11:44:31.009Z,28.21
2019-03-23T11:45:30.994Z,28.54
2019-03-23T11:46:30.983Z,28.54
2019-03-23T11:47:30.978Z,28.83
2019-03-23T11:48:30.968Z,28.83
2019-03-23T11:49:30.969Z,28.83
2019-03-23T11:50:38.537Z,28.73
2019-03-23T11:51:30.937Z,28.58
2019-03-23T11:52:30.923Z,28.60
2019-03-23T11:53:30.912Z,28.50
2019-03-23T11:54:30.917Z,28.57
2019-03-23T11:55:30.897Z,28.69
2019-03-23T11:56:30.887Z,28.62
2019-03-23T11:57:30.876Z,28.79
2019-03-23T11:58:30.871Z,28.87
2019-03-23T11:59:37.941Z,29.00
2019-03-23T12:00:30.839Z,29.26
2019-03-23T12:01:30.836Z,29.26
2019-03-23T12:02:30.821Z,29.26
2019-03-23T12:03:30.809Z,29.11
2019-03-23T12:04:30.806Z,28.91
2019-03-23T12:05:30.812Z,28.48
2019-03-23T12:06:30.783Z,28.43
2019-03-23T12:07:30.773Z,28.38
2019-03-23T12:08:30.758Z,28.36
2019-03-23T12:09:30.752Z,28.48
2019-03-23T12:10:30.773Z,28.55
2019-03-23T12:11:30.728Z,28.32
2019-03-23T12:12:30.721Z,28.35
2019-03-23T12:13:30.710Z,28.36
2019-03-23T12:14:30.696Z,28.21
2019-03-23T12:15:30.686Z,28.30
2019-03-23T12:16:30.689Z,28.60
2019-03-23T12:17:30.666Z,28.60
2019-03-23T12:18:30.660Z,28.38
2019-03-23T12:19:30.667Z,28.24
2019-03-23T12:20:30.644Z,28.32
2019-03-23T12:21:30.634Z,28.39
2019-03-23T12:22:30.620Z,28.55
2019-03-23T12:23:30.605Z,28.06
2019-03-23T12:24:30.600Z,27.86
2019-03-23T12:25:30.587Z,27.76
2019-03-23T12:26:30.631Z,27.66
2019-03-23T12:27:30.573Z,27.74
2019-03-23T12:28:30.561Z,27.40
2019-03-23T12:29:30.553Z,27.33
2019-03-23T12:30:30.543Z,27.16
2019-03-23T12:31:30.537Z,27.05
2019-03-23T12:32:30.529Z,26.53
2019-03-23T12:33:30.516Z,26.28
2019-03-23T12:34:30.499Z,26.35
2019-03-23T12:35:30.485Z,26.44
2019-03-23T12:36:30.480Z,26.42
2019-03-23T12:37:30.487Z,26.35
2019-03-23T12:38:30.458Z,26.12
2019-03-23T12:39:30.443Z,25.64
2019-03-23T12:40:30.440Z,25.59
2019-03-23T12:41:30.430Z,25.56
2019-03-23T12:42:37.500Z,25.26
2019-03-23T12:43:38.123Z,25.11
2019-03-23T12:44:38.154Z,24.99
2019-03-23T12:45:38.921Z,24.75
2019-03-23T12:46:47.980Z,24.33
2019-03-23T12:53:15.206Z,23.86
2019-03-23T12:54:22.238Z,23.59
2019-03-23T12:55:22.947Z,23.57
2019-03-23T12:56:22.975Z,23.14
2019-03-23T12:57:22.994Z,22.85
2019-03-23T12:58:15.135Z,22.99
2019-03-23T12:59:15.125Z,23.03
2019-03-23T13:00:15.123Z,22.79
2019-03-23T13:01:15.101Z,22.61
2019-03-23T13:02:15.098Z,22.42
2019-03-23T13:03:15.081Z,22.31
2019-03-23T13:04:24.018Z,22.23
2019-03-23T13:05:15.072Z,22.20
2019-03-23T13:06:15.055Z,22.12
2019-03-23T13:07:15.042Z,22.01
2019-03-23T13:08:15.026Z,21.86
2019-03-23T13:09:15.017Z,21.86
2019-03-23T13:10:15.014Z,21.86
2019-03-23T13:11:23.126Z,21.98
2019-03-23T13:12:15.984Z,21.83
2019-03-23T13:13:14.977Z,21.93